sensor_id;sensor_type;location;lat;lon;timestamp;P1;durP1;ratioP1;P2;durP2;ratioP2
4857;SDS011;58975;51.978;8.472;2023-07-16T00:03:14;3.55;;;1.60;;
4857;SDS011;58975;51.978;8.472;2023-07-16T00:08:10;2.97;;;1.30;;
4857;SDS011;58975;51.978;8.472;2023-07-16T00:13:07;1.60;;;1.08;;
4857;SDS011;58975;51.978;8.472;2023-07-16T00:18:03;4.55;;;1.50;;
4857;SDS011;58975;51.978;8.472;2023-07-16T00:23:01;3.92;;;1.55;;
4857;SDS011;58975;51.978;8.472;2023-07-16T00:27:58;1.77;;;1.20;;
4857;SDS011;58975;51.978;8.472;2023-07-16T00:32:55;4.93;;;1.20;;
4857;SDS011;58975;51.978;8.472;2023-07-16T00:37:51;2.20;;;1.20;;
4857;SDS011;58975;51.978;8.472;2023-07-16T00:42:48;3.53;;;1.20;;
4857;SDS011;58975;51.978;8.472;2023-07-16T00:47:44;2.90;;;0.95;;
4857;SDS011;58975;51.978;8.472;2023-07-16T00:52:42;1.88;;;1.20;;
4857;SDS011;58975;51.978;8.472;2023-07-16T00:57:40;1.55;;;1.20;;
4857;SDS011;58975;51.978;8.472;2023-07-16T01:02:37;3.45;;;1.48;;
4857;SDS011;58975;51.978;8.472;2023-07-16T01:07:34;3.43;;;2.20;;
4857;SDS011;58975;51.978;8.472;2023-07-16T01:12:33;2.53;;;1.10;;
4857;SDS011;58975;51.978;8.472;2023-07-16T01:17:30;1.73;;;0.97;;
4857;SDS011;58975;51.978;8.472;2023-07-16T01:22:28;1.67;;;1.03;;
4857;SDS011;58975;51.978;8.472;2023-07-16T01:27:50;3.97;;;1.63;;
4857;SDS011;58975;51.978;8.472;2023-07-16T01:33:01;2.55;;;1.23;;
4857;SDS011;58975;51.978;8.472;2023-07-16T01:38:01;2.55;;;1.35;;
4857;SDS011;58975;51.978;8.472;2023-07-16T01:42:57;2.63;;;1.08;;
4857;SDS011;58975;51.978;8.472;2023-07-16T01:53:18;2.85;;;1.30;;
4857;SDS011;58975;51.978;8.472;2023-07-16T01:58:14;1.58;;;1.13;;
4857;SDS011;58975;51.978;8.472;2023-07-16T02:03:11;3.53;;;1.17;;
4857;SDS011;58975;51.978;8.472;2023-07-16T02:08:08;2.35;;;1.25;;
4857;SDS011;58975;51.978;8.472;2023-07-16T02:13:04;1.95;;;1.20;;
4857;SDS011;58975;51.978;8.472;2023-07-16T02:18:01;4.35;;;1.15;;
4857;SDS011;58975;51.978;8.472;2023-07-16T02:22:57;2.38;;;1.23;;
4857;SDS011;58975;51.978;8.472;2023-07-16T02:27:54;5.45;;;1.60;;
4857;SDS011;58975;51.978;8.472;2023-07-16T02:32:50;4.40;;;1.30;;
4857;SDS011;58975;51.978;8.472;2023-07-16T02:37:47;4.78;;;1.58;;
4857;SDS011;58975;51.978;8.472;2023-07-16T02:42:43;2.50;;;1.85;;
4857;SDS011;58975;51.978;8.472;2023-07-16T02:47:40;2.38;;;1.33;;
4857;SDS011;58975;51.978;8.472;2023-07-16T02:52:37;2.30;;;1.25;;
4857;SDS011;58975;51.978;8.472;2023-07-16T02:57:33;3.53;;;1.25;;
4857;SDS011;58975;51.978;8.472;2023-07-16T03:02:30;5.35;;;1.20;;
4857;SDS011;58975;51.978;8.472;2023-07-16T03:07:26;3.25;;;1.75;;
4857;SDS011;58975;51.978;8.472;2023-07-16T03:12:23;5.05;;;1.63;;
4857;SDS011;58975;51.978;8.472;2023-07-16T03:17:22;2.67;;;1.30;;
4857;SDS011;58975;51.978;8.472;2023-07-16T03:22:19;3.78;;;1.90;;
4857;SDS011;58975;51.978;8.472;2023-07-16T03:27:16;3.58;;;2.25;;
4857;SDS011;58975;51.978;8.472;2023-07-16T03:32:14;4.00;;;1.77;;
4857;SDS011;58975;51.978;8.472;2023-07-16T03:37:11;3.83;;;1.77;;
4857;SDS011;58975;51.978;8.472;2023-07-16T03:42:07;4.55;;;1.50;;
4857;SDS011;58975;51.978;8.472;2023-07-16T03:47:04;4.88;;;1.38;;
4857;SDS011;58975;51.978;8.472;2023-07-16T03:52:01;3.15;;;1.40;;
4857;SDS011;58975;51.978;8.472;2023-07-16T03:56:57;3.00;;;1.38;;
4857;SDS011;58975;51.978;8.472;2023-07-16T04:01:54;2.40;;;1.60;;
4857;SDS011;58975;51.978;8.472;2023-07-16T04:06:50;5.25;;;1.40;;
4857;SDS011;58975;51.978;8.472;2023-07-16T04:11:47;5.35;;;1.58;;
4857;SDS011;58975;51.978;8.472;2023-07-16T04:16:43;3.63;;;1.65;;
4857;SDS011;58975;51.978;8.472;2023-07-16T04:21:40;5.07;;;2.20;;
4857;SDS011;58975;51.978;8.472;2023-07-16T04:26:36;2.60;;;1.42;;
4857;SDS011;58975;51.978;8.472;2023-07-16T04:31:33;5.15;;;1.42;;
4857;SDS011;58975;51.978;8.472;2023-07-16T04:36:30;3.80;;;1.33;;
4857;SDS011;58975;51.978;8.472;2023-07-16T04:41:27;3.05;;;1.38;;
4857;SDS011;58975;51.978;8.472;2023-07-16T04:46:24;5.45;;;1.63;;
4857;SDS011;58975;51.978;8.472;2023-07-16T04:51:21;4.05;;;1.63;;
4857;SDS011;58975;51.978;8.472;2023-07-16T04:56:17;6.43;;;1.10;;
4857;SDS011;58975;51.978;8.472;2023-07-16T05:01:14;4.20;;;1.40;;
4857;SDS011;58975;51.978;8.472;2023-07-16T05:06:11;4.55;;;1.73;;
4857;SDS011;58975;51.978;8.472;2023-07-16T05:11:07;3.80;;;1.52;;
4857;SDS011;58975;51.978;8.472;2023-07-16T05:16:04;7.05;;;1.70;;
4857;SDS011;58975;51.978;8.472;2023-07-16T05:21:01;5.93;;;1.43;;
4857;SDS011;58975;51.978;8.472;2023-07-16T05:25:57;3.42;;;1.52;;
4857;SDS011;58975;51.978;8.472;2023-07-16T05:30:58;9.13;;;1.45;;
4857;SDS011;58975;51.978;8.472;2023-07-16T05:35:55;4.55;;;1.30;;
4857;SDS011;58975;51.978;8.472;2023-07-16T05:40:52;4.85;;;1.20;;
4857;SDS011;58975;51.978;8.472;2023-07-16T05:45:49;3.45;;;1.30;;
4857;SDS011;58975;51.978;8.472;2023-07-16T05:50:45;5.13;;;1.55;;
4857;SDS011;58975;51.978;8.472;2023-07-16T05:55:42;4.15;;;2.05;;
4857;SDS011;58975;51.978;8.472;2023-07-16T06:00:39;6.30;;;2.20;;
4857;SDS011;58975;51.978;8.472;2023-07-16T06:05:35;4.85;;;1.73;;
4857;SDS011;58975;51.978;8.472;2023-07-16T06:10:33;4.88;;;1.95;;
4857;SDS011;58975;51.978;8.472;2023-07-16T06:15:31;5.95;;;1.88;;
4857;SDS011;58975;51.978;8.472;2023-07-16T06:20:27;5.10;;;2.00;;
4857;SDS011;58975;51.978;8.472;2023-07-16T06:25:25;5.93;;;1.85;;
4857;SDS011;58975;51.978;8.472;2023-07-16T06:30:21;4.88;;;2.40;;
4857;SDS011;58975;51.978;8.472;2023-07-16T06:35:18;5.00;;;1.85;;
4857;SDS011;58975;51.978;8.472;2023-07-16T06:40:14;6.10;;;2.15;;
4857;SDS011;58975;51.978;8.472;2023-07-16T06:45:11;6.28;;;2.67;;
4857;SDS011;58975;51.978;8.472;2023-07-16T06:50:07;6.30;;;1.70;;
4857;SDS011;58975;51.978;8.472;2023-07-16T06:55:04;3.67;;;2.17;;
4857;SDS011;58975;51.978;8.472;2023-07-16T07:00:01;5.50;;;2.10;;
4857;SDS011;58975;51.978;8.472;2023-07-16T07:04:58;4.72;;;2.47;;
4857;SDS011;58975;51.978;8.472;2023-07-16T07:09:55;5.27;;;2.40;;
4857;SDS011;58975;51.978;8.472;2023-07-16T07:14:52;10.40;;;3.95;;
4857;SDS011;58975;51.978;8.472;2023-07-16T07:19:48;6.88;;;2.90;;
4857;SDS011;58975;51.978;8.472;2023-07-16T07:24:45;7.20;;;2.70;;
4857;SDS011;58975;51.978;8.472;2023-07-16T07:29:41;6.57;;;2.95;;
4857;SDS011;58975;51.978;8.472;2023-07-16T07:34:38;3.38;;;2.13;;
4857;SDS011;58975;51.978;8.472;2023-07-16T07:39:35;6.23;;;2.40;;
4857;SDS011;58975;51.978;8.472;2023-07-16T07:44:32;8.20;;;3.35;;
4857;SDS011;58975;51.978;8.472;2023-07-16T07:49:28;4.27;;;2.20;;
4857;SDS011;58975;51.978;8.472;2023-07-16T07:54:25;8.13;;;2.70;;
4857;SDS011;58975;51.978;8.472;2023-07-16T07:59:21;3.83;;;2.30;;
4857;SDS011;58975;51.978;8.472;2023-07-16T08:04:18;5.70;;;2.33;;
4857;SDS011;58975;51.978;8.472;2023-07-16T08:09:15;8.48;;;3.08;;
4857;SDS011;58975;51.978;8.472;2023-07-16T08:14:11;8.55;;;2.83;;
4857;SDS011;58975;51.978;8.472;2023-07-16T08:19:08;7.90;;;2.75;;
4857;SDS011;58975;51.978;8.472;2023-07-16T08:24:05;3.40;;;2.65;;
4857;SDS011;58975;51.978;8.472;2023-07-16T08:29:03;10.68;;;5.75;;
4857;SDS011;58975;51.978;8.472;2023-07-16T08:34:00;10.02;;;4.18;;
4857;SDS011;58975;51.978;8.472;2023-07-16T08:38:59;6.40;;;3.38;;
4857;SDS011;58975;51.978;8.472;2023-07-16T08:43:56;6.68;;;3.08;;
4857;SDS011;58975;51.978;8.472;2023-07-16T08:48:52;5.20;;;3.00;;
4857;SDS011;58975;51.978;8.472;2023-07-16T08:53:49;5.28;;;2.65;;
4857;SDS011;58975;51.978;8.472;2023-07-16T08:58:46;7.07;;;2.88;;
4857;SDS011;58975;51.978;8.472;2023-07-16T09:08:40;6.97;;;2.90;;
4857;SDS011;58975;51.978;8.472;2023-07-16T09:13:37;10.87;;;2.60;;
4857;SDS011;58975;51.978;8.472;2023-07-16T09:18:33;10.82;;;3.40;;
4857;SDS011;58975;51.978;8.472;2023-07-16T09:23:30;4.43;;;2.53;;
4857;SDS011;58975;51.978;8.472;2023-07-16T09:28:27;8.70;;;3.28;;
4857;SDS011;58975;51.978;8.472;2023-07-16T09:33:23;4.15;;;2.25;;
4857;SDS011;58975;51.978;8.472;2023-07-16T09:38:22;5.38;;;2.90;;
4857;SDS011;58975;51.978;8.472;2023-07-16T09:43:22;6.25;;;2.83;;
4857;SDS011;58975;51.978;8.472;2023-07-16T09:48:19;17.37;;;3.47;;
4857;SDS011;58975;51.978;8.472;2023-07-16T09:53:16;8.00;;;2.53;;
4857;SDS011;58975;51.978;8.472;2023-07-16T09:58:16;5.00;;;2.72;;
4857;SDS011;58975;51.978;8.472;2023-07-16T10:03:16;5.53;;;2.05;;
4857;SDS011;58975;51.978;8.472;2023-07-16T10:08:17;7.82;;;2.47;;
4857;SDS011;58975;51.978;8.472;2023-07-16T10:13:15;4.07;;;2.28;;
4857;SDS011;58975;51.978;8.472;2023-07-16T10:18:22;4.97;;;3.78;;
4857;SDS011;58975;51.978;8.472;2023-07-16T10:23:19;4.57;;;2.60;;
4857;SDS011;58975;51.978;8.472;2023-07-16T10:28:15;7.07;;;2.10;;
4857;SDS011;58975;51.978;8.472;2023-07-16T10:33:12;8.17;;;2.60;;
4857;SDS011;58975;51.978;8.472;2023-07-16T10:38:09;5.40;;;2.17;;
4857;SDS011;58975;51.978;8.472;2023-07-16T10:48:03;5.07;;;2.08;;
4857;SDS011;58975;51.978;8.472;2023-07-16T10:53:00;3.38;;;2.53;;
4857;SDS011;58975;51.978;8.472;2023-07-16T10:57:57;5.70;;;2.40;;
4857;SDS011;58975;51.978;8.472;2023-07-16T11:02:54;3.45;;;2.38;;
4857;SDS011;58975;51.978;8.472;2023-07-16T11:07:51;6.55;;;2.50;;
4857;SDS011;58975;51.978;8.472;2023-07-16T11:12:51;4.03;;;2.20;;
4857;SDS011;58975;51.978;8.472;2023-07-16T11:17:49;7.13;;;2.80;;
4857;SDS011;58975;51.978;8.472;2023-07-16T11:22:47;8.18;;;2.88;;
4857;SDS011;58975;51.978;8.472;2023-07-16T11:27:44;6.22;;;2.97;;
4857;SDS011;58975;51.978;8.472;2023-07-16T11:32:45;7.87;;;2.53;;
4857;SDS011;58975;51.978;8.472;2023-07-16T11:37:43;7.35;;;2.67;;
4857;SDS011;58975;51.978;8.472;2023-07-16T11:42:40;6.72;;;2.75;;
4857;SDS011;58975;51.978;8.472;2023-07-16T11:47:40;5.25;;;2.65;;
4857;SDS011;58975;51.978;8.472;2023-07-16T11:52:40;4.47;;;2.50;;
4857;SDS011;58975;51.978;8.472;2023-07-16T11:57:37;9.32;;;2.50;;
4857;SDS011;58975;51.978;8.472;2023-07-16T12:02:33;4.23;;;2.77;;
4857;SDS011;58975;51.978;8.472;2023-07-16T12:07:37;7.60;;;2.50;;
4857;SDS011;58975;51.978;8.472;2023-07-16T12:12:34;3.97;;;2.42;;
4857;SDS011;58975;51.978;8.472;2023-07-16T12:17:34;3.20;;;2.03;;
4857;SDS011;58975;51.978;8.472;2023-07-16T12:27:29;3.03;;;2.22;;
4857;SDS011;58975;51.978;8.472;2023-07-16T12:32:25;4.23;;;2.00;;
4857;SDS011;58975;51.978;8.472;2023-07-16T12:37:22;6.22;;;2.30;;
4857;SDS011;58975;51.978;8.472;2023-07-16T12:42:19;3.65;;;2.15;;
4857;SDS011;58975;51.978;8.472;2023-07-16T12:47:16;5.75;;;2.40;;
4857;SDS011;58975;51.978;8.472;2023-07-16T12:52:12;2.97;;;2.13;;
4857;SDS011;58975;51.978;8.472;2023-07-16T12:57:09;5.07;;;2.50;;
4857;SDS011;58975;51.978;8.472;2023-07-16T13:02:05;5.33;;;1.80;;
4857;SDS011;58975;51.978;8.472;2023-07-16T13:07:03;4.25;;;2.33;;
4857;SDS011;58975;51.978;8.472;2023-07-16T13:12:00;1.77;;;1.60;;
4857;SDS011;58975;51.978;8.472;2023-07-16T13:16:56;3.63;;;1.80;;
4857;SDS011;58975;51.978;8.472;2023-07-16T13:21:53;4.30;;;2.07;;
4857;SDS011;58975;51.978;8.472;2023-07-16T13:26:49;4.30;;;1.50;;
4857;SDS011;58975;51.978;8.472;2023-07-16T13:31:46;3.67;;;1.57;;
4857;SDS011;58975;51.978;8.472;2023-07-16T13:36:43;4.63;;;2.23;;
4857;SDS011;58975;51.978;8.472;2023-07-16T13:41:39;7.50;;;1.80;;
4857;SDS011;58975;51.978;8.472;2023-07-16T13:51:34;4.57;;;1.40;;
4857;SDS011;58975;51.978;8.472;2023-07-16T13:56:30;5.73;;;2.53;;
4857;SDS011;58975;51.978;8.472;2023-07-16T14:01:27;4.40;;;1.85;;
4857;SDS011;58975;51.978;8.472;2023-07-16T14:06:23;4.90;;;1.70;;
4857;SDS011;58975;51.978;8.472;2023-07-16T14:11:20;6.57;;;2.50;;
4857;SDS011;58975;51.978;8.472;2023-07-16T14:16:18;2.53;;;2.13;;
4857;SDS011;58975;51.978;8.472;2023-07-16T14:21:16;6.78;;;2.00;;
4857;SDS011;58975;51.978;8.472;2023-07-16T14:26:12;7.23;;;3.77;;
4857;SDS011;58975;51.978;8.472;2023-07-16T14:31:09;5.25;;;3.10;;
4857;SDS011;58975;51.978;8.472;2023-07-16T14:36:06;2.25;;;1.73;;
4857;SDS011;58975;51.978;8.472;2023-07-16T14:41:03;4.47;;;2.13;;
4857;SDS011;58975;51.978;8.472;2023-07-16T14:46:00;3.65;;;1.73;;
4857;SDS011;58975;51.978;8.472;2023-07-16T14:50:58;2.97;;;1.90;;
4857;SDS011;58975;51.978;8.472;2023-07-16T14:55:54;4.28;;;1.80;;
4857;SDS011;58975;51.978;8.472;2023-07-16T15:00:51;3.63;;;1.87;;
4857;SDS011;58975;51.978;8.472;2023-07-16T15:05:48;5.47;;;1.67;;
4857;SDS011;58975;51.978;8.472;2023-07-16T15:10:44;3.70;;;2.10;;
4857;SDS011;58975;51.978;8.472;2023-07-16T15:15:46;6.07;;;1.97;;
4857;SDS011;58975;51.978;8.472;2023-07-16T15:20:43;4.53;;;2.42;;
4857;SDS011;58975;51.978;8.472;2023-07-16T15:25:41;5.60;;;2.00;;
4857;SDS011;58975;51.978;8.472;2023-07-16T15:30:38;6.22;;;1.70;;
4857;SDS011;58975;51.978;8.472;2023-07-16T15:35:35;6.28;;;2.10;;
4857;SDS011;58975;51.978;8.472;2023-07-16T15:45:30;6.72;;;2.13;;
4857;SDS011;58975;51.978;8.472;2023-07-16T15:50:27;6.17;;;2.13;;
4857;SDS011;58975;51.978;8.472;2023-07-16T15:55:24;3.53;;;2.15;;
4857;SDS011;58975;51.978;8.472;2023-07-16T16:00:20;6.53;;;2.67;;
4857;SDS011;58975;51.978;8.472;2023-07-16T16:10:14;4.70;;;2.17;;
4857;SDS011;58975;51.978;8.472;2023-07-16T16:15:12;4.30;;;2.08;;
4857;SDS011;58975;51.978;8.472;2023-07-16T16:20:09;4.60;;;1.70;;
4857;SDS011;58975;51.978;8.472;2023-07-16T16:25:06;3.40;;;2.03;;
4857;SDS011;58975;51.978;8.472;2023-07-16T16:35:00;3.50;;;2.13;;
4857;SDS011;58975;51.978;8.472;2023-07-16T16:39:57;4.03;;;2.20;;
4857;SDS011;58975;51.978;8.472;2023-07-16T16:44:55;5.05;;;1.90;;
4857;SDS011;58975;51.978;8.472;2023-07-16T16:49:51;3.08;;;1.83;;
4857;SDS011;58975;51.978;8.472;2023-07-16T16:54:48;2.90;;;1.92;;
4857;SDS011;58975;51.978;8.472;2023-07-16T16:59:44;3.47;;;2.05;;
4857;SDS011;58975;51.978;8.472;2023-07-16T17:04:41;7.53;;;3.03;;
4857;SDS011;58975;51.978;8.472;2023-07-16T17:09:39;6.50;;;2.25;;
4857;SDS011;58975;51.978;8.472;2023-07-16T17:14:37;4.85;;;2.22;;
4857;SDS011;58975;51.978;8.472;2023-07-16T17:19:35;5.85;;;2.30;;
4857;SDS011;58975;51.978;8.472;2023-07-16T17:24:32;3.45;;;1.90;;
4857;SDS011;58975;51.978;8.472;2023-07-16T17:29:29;4.70;;;1.33;;
4857;SDS011;58975;51.978;8.472;2023-07-16T17:34:27;4.53;;;2.00;;
4857;SDS011;58975;51.978;8.472;2023-07-16T17:39:25;4.38;;;1.75;;
4857;SDS011;58975;51.978;8.472;2023-07-16T17:44:21;5.78;;;2.25;;
4857;SDS011;58975;51.978;8.472;2023-07-16T17:49:18;3.90;;;1.73;;
4857;SDS011;58975;51.978;8.472;2023-07-16T17:54:14;8.17;;;2.70;;
4857;SDS011;58975;51.978;8.472;2023-07-16T17:59:11;8.17;;;2.30;;
4857;SDS011;58975;51.978;8.472;2023-07-16T18:04:07;6.57;;;1.90;;
4857;SDS011;58975;51.978;8.472;2023-07-16T18:09:04;3.35;;;1.75;;
4857;SDS011;58975;51.978;8.472;2023-07-16T18:14:03;4.90;;;1.67;;
4857;SDS011;58975;51.978;8.472;2023-07-16T18:19:00;4.77;;;1.73;;
4857;SDS011;58975;51.978;8.472;2023-07-16T18:23:57;3.45;;;1.70;;
4857;SDS011;58975;51.978;8.472;2023-07-16T18:28:53;3.83;;;1.60;;
4857;SDS011;58975;51.978;8.472;2023-07-16T18:33:50;7.20;;;2.50;;
4857;SDS011;58975;51.978;8.472;2023-07-16T18:38:49;5.18;;;1.73;;
4857;SDS011;58975;51.978;8.472;2023-07-16T18:43:45;4.20;;;1.87;;
4857;SDS011;58975;51.978;8.472;2023-07-16T18:48:42;4.47;;;1.90;;
4857;SDS011;58975;51.978;8.472;2023-07-16T18:53:38;4.70;;;2.00;;
4857;SDS011;58975;51.978;8.472;2023-07-16T18:58:35;3.23;;;1.80;;
4857;SDS011;58975;51.978;8.472;2023-07-16T19:03:31;6.90;;;1.80;;
4857;SDS011;58975;51.978;8.472;2023-07-16T19:08:28;3.40;;;1.50;;
4857;SDS011;58975;51.978;8.472;2023-07-16T19:13:24;9.27;;;2.10;;
4857;SDS011;58975;51.978;8.472;2023-07-16T19:18:21;4.63;;;1.87;;
4857;SDS011;58975;51.978;8.472;2023-07-16T19:23:18;4.35;;;1.90;;
4857;SDS011;58975;51.978;8.472;2023-07-16T19:28:14;5.27;;;1.93;;
4857;SDS011;58975;51.978;8.472;2023-07-16T19:33:13;11.07;;;2.83;;
4857;SDS011;58975;51.978;8.472;2023-07-16T19:38:09;3.30;;;1.90;;
4857;SDS011;58975;51.978;8.472;2023-07-16T19:43:06;9.30;;;4.73;;
4857;SDS011;58975;51.978;8.472;2023-07-16T19:48:02;4.75;;;2.25;;
4857;SDS011;58975;51.978;8.472;2023-07-16T19:53:03;5.40;;;2.22;;
4857;SDS011;58975;51.978;8.472;2023-07-16T19:58:00;3.27;;;2.17;;
4857;SDS011;58975;51.978;8.472;2023-07-16T20:02:56;5.40;;;2.22;;
4857;SDS011;58975;51.978;8.472;2023-07-16T20:07:53;4.30;;;2.33;;
4857;SDS011;58975;51.978;8.472;2023-07-16T20:12:52;4.60;;;1.92;;
4857;SDS011;58975;51.978;8.472;2023-07-16T20:17:49;2.58;;;1.73;;
4857;SDS011;58975;51.978;8.472;2023-07-16T20:22:45;3.80;;;2.03;;
4857;SDS011;58975;51.978;8.472;2023-07-16T20:27:44;4.97;;;1.93;;
4857;SDS011;58975;51.978;8.472;2023-07-16T20:32:42;8.48;;;1.90;;
4857;SDS011;58975;51.978;8.472;2023-07-16T20:37:38;3.80;;;1.80;;
4857;SDS011;58975;51.978;8.472;2023-07-16T20:42:35;7.60;;;2.58;;
4857;SDS011;58975;51.978;8.472;2023-07-16T20:47:31;2.97;;;1.73;;
4857;SDS011;58975;51.978;8.472;2023-07-16T20:52:28;4.13;;;1.90;;
4857;SDS011;58975;51.978;8.472;2023-07-16T20:57:24;6.97;;;2.55;;
4857;SDS011;58975;51.978;8.472;2023-07-16T21:02:21;2.63;;;1.92;;
4857;SDS011;58975;51.978;8.472;2023-07-16T21:07:18;4.13;;;1.90;;
4857;SDS011;58975;51.978;8.472;2023-07-16T21:12:14;3.25;;;1.83;;
4857;SDS011;58975;51.978;8.472;2023-07-16T21:17:11;8.18;;;2.90;;
4857;SDS011;58975;51.978;8.472;2023-07-16T21:22:07;4.63;;;1.98;;
4857;SDS011;58975;51.978;8.472;2023-07-16T21:27:04;4.70;;;2.25;;
4857;SDS011;58975;51.978;8.472;2023-07-16T21:32:01;3.73;;;2.10;;
4857;SDS011;58975;51.978;8.472;2023-07-16T21:36:57;3.53;;;2.20;;
4857;SDS011;58975;51.978;8.472;2023-07-16T21:41:54;5.18;;;2.20;;
4857;SDS011;58975;51.978;8.472;2023-07-16T21:46:50;4.70;;;1.85;;
4857;SDS011;58975;51.978;8.472;2023-07-16T21:51:47;2.90;;;2.05;;
4857;SDS011;58975;51.978;8.472;2023-07-16T21:56:44;2.60;;;1.88;;
4857;SDS011;58975;51.978;8.472;2023-07-16T22:01:40;7.77;;;2.40;;
4857;SDS011;58975;51.978;8.472;2023-07-16T22:06:37;3.17;;;2.00;;
4857;SDS011;58975;51.978;8.472;2023-07-16T22:11:34;3.28;;;1.98;;
4857;SDS011;58975;51.978;8.472;2023-07-16T22:16:34;4.15;;;2.33;;
4857;SDS011;58975;51.978;8.472;2023-07-16T22:21:32;4.07;;;2.50;;
4857;SDS011;58975;51.978;8.472;2023-07-16T22:26:28;6.35;;;2.65;;
4857;SDS011;58975;51.978;8.472;2023-07-16T22:31:25;4.63;;;2.38;;
4857;SDS011;58975;51.978;8.472;2023-07-16T22:36:22;6.38;;;3.17;;
4857;SDS011;58975;51.978;8.472;2023-07-16T22:41:18;7.60;;;2.67;;
4857;SDS011;58975;51.978;8.472;2023-07-16T22:46:15;7.13;;;2.30;;
4857;SDS011;58975;51.978;8.472;2023-07-16T22:51:12;7.67;;;2.50;;
4857;SDS011;58975;51.978;8.472;2023-07-16T22:56:09;9.40;;;2.72;;
4857;SDS011;58975;51.978;8.472;2023-07-16T23:01:07;6.80;;;2.97;;
4857;SDS011;58975;51.978;8.472;2023-07-16T23:06:04;7.45;;;2.97;;
4857;SDS011;58975;51.978;8.472;2023-07-16T23:11:01;5.03;;;2.70;;
4857;SDS011;58975;51.978;8.472;2023-07-16T23:15:58;5.40;;;2.67;;
4857;SDS011;58975;51.978;8.472;2023-07-16T23:20:54;8.57;;;3.08;;
4857;SDS011;58975;51.978;8.472;2023-07-16T23:25:51;5.47;;;2.60;;
4857;SDS011;58975;51.978;8.472;2023-07-16T23:30:47;8.52;;;2.65;;
4857;SDS011;58975;51.978;8.472;2023-07-16T23:35:44;4.78;;;2.80;;
4857;SDS011;58975;51.978;8.472;2023-07-16T23:40:41;9.27;;;3.00;;
4857;SDS011;58975;51.978;8.472;2023-07-16T23:45:37;4.15;;;2.75;;
4857;SDS011;58975;51.978;8.472;2023-07-16T23:50:35;3.75;;;2.60;;
4857;SDS011;58975;51.978;8.472;2023-07-16T23:55:32;4.93;;;2.78;;
